< Typhoon 196027 1961 Season Typhoon 196102 >
Typhoon 196101 (RITA)
General InformationTrack Information on Google Maps || Disaster Info.ResourceGoogle EarthGE AnimationAtom FeedGeoJSON
Detalied Best Track (Time Zone = UTC)
Year Month Day Hour Lat. Long. Pressure (hPa) Wind (kt) Class Image Chart
1961 1 14 00 7.9 135.8 1004 0 2 -- Chart
1961 1 14 06 7.9 135.7 1000 0 2 -- Chart
1961 1 14 12 8.9 135.4 1002 0 2 -- Chart
1961 1 14 18 9.0 133.9 1000 0 2 -- Chart
1961 1 15 00 9.2 132.5 1000 0 2 -- Chart
1961 1 15 06 9.4 132.3 1000 0 2 -- Chart
1961 1 15 12 9.6 132.1 1000 0 2 -- Chart
1961 1 15 18 9.9 131.9 1000 0 2 -- Chart
1961 1 16 00 10.2 131.7 1000 0 2 -- Chart
1961 1 16 06 10.6 131.5 996 0 9 -- Chart
1961 1 16 12 10.8 131.4 998 0 9 -- Chart
1961 1 16 18 11.2 131.3 1000 0 9 -- Chart
1961 1 17 00 11.4 131.7 1000 0 9 -- Chart
1961 1 17 06 11.5 132.4 1000 0 9 -- Chart
1961 1 17 12 11.6 133.7 1002 0 2 -- Chart
1961 1 17 18 11.8 134.7 1000 0 2 -- Chart
1961 1 18 00 12.0 136.0 1002 0 2 -- Chart
1961 1 18 06 12.3 137.5 1000 0 2 -- Chart
1961 1 18 12 12.8 138.6 1000 0 2 -- Chart
1961 1 18 18 13.4 139.5 1002 0 2 -- Chart
1961 1 19 00 14.0 140.5 1002 0 2 -- Chart
1961 1 19 06 15.0 142.0 1002 0 2 -- Chart
1961 1 19 12 15.7 143.0 1004 0 2 -- Chart
1961 1 19 18 16.5 144.2 1006 0 2 -- Chart
Japan Meteorological Agency Best Track Data | Correction Date : 1989-06-01
< Typhoon 196027 1961 Season Typhoon 196102 >

Help